sensor_id;sensor_type;location;lat;lon;timestamp;P1;durP1;ratioP1;P2;durP2;ratioP2
19891;SDS011;10108;50.142;8.724;2024-01-30T00:01:26;19.70;;;9.95;;
19891;SDS011;10108;50.142;8.724;2024-01-30T00:04:12;24.13;;;11.50;;
19891;SDS011;10108;50.142;8.724;2024-01-30T00:06:59;18.60;;;10.32;;
19891;SDS011;10108;50.142;8.724;2024-01-30T00:09:46;21.13;;;11.40;;
19891;SDS011;10108;50.142;8.724;2024-01-30T00:12:34;22.70;;;11.30;;
19891;SDS011;10108;50.142;8.724;2024-01-30T00:15:20;18.45;;;10.77;;
19891;SDS011;10108;50.142;8.724;2024-01-30T00:18:06;19.58;;;10.77;;
19891;SDS011;10108;50.142;8.724;2024-01-30T00:20:53;18.08;;;10.52;;
19891;SDS011;10108;50.142;8.724;2024-01-30T00:23:39;18.20;;;10.40;;
19891;SDS011;10108;50.142;8.724;2024-01-30T00:26:26;19.08;;;10.45;;
19891;SDS011;10108;50.142;8.724;2024-01-30T00:29:12;20.00;;;10.40;;
19891;SDS011;10108;50.142;8.724;2024-01-30T00:32:05;19.55;;;10.45;;
19891;SDS011;10108;50.142;8.724;2024-01-30T00:34:51;19.52;;;10.48;;
19891;SDS011;10108;50.142;8.724;2024-01-30T00:37:38;19.65;;;10.18;;
19891;SDS011;10108;50.142;8.724;2024-01-30T00:40:24;19.13;;;10.35;;
19891;SDS011;10108;50.142;8.724;2024-01-30T00:43:11;18.83;;;10.70;;
19891;SDS011;10108;50.142;8.724;2024-01-30T00:45:58;16.85;;;10.40;;
19891;SDS011;10108;50.142;8.724;2024-01-30T00:48:45;18.75;;;10.70;;
19891;SDS011;10108;50.142;8.724;2024-01-30T00:51:31;19.73;;;10.65;;
19891;SDS011;10108;50.142;8.724;2024-01-30T00:54:17;20.65;;;10.77;;
19891;SDS011;10108;50.142;8.724;2024-01-30T00:57:04;22.83;;;11.35;;
19891;SDS011;10108;50.142;8.724;2024-01-30T00:59:50;20.58;;;11.00;;
19891;SDS011;10108;50.142;8.724;2024-01-30T01:02:37;21.35;;;10.30;;
19891;SDS011;10108;50.142;8.724;2024-01-30T01:05:25;18.85;;;10.27;;
19891;SDS011;10108;50.142;8.724;2024-01-30T01:08:11;20.02;;;10.30;;
19891;SDS011;10108;50.142;8.724;2024-01-30T01:10:57;16.98;;;10.23;;
19891;SDS011;10108;50.142;8.724;2024-01-30T01:13:44;17.90;;;10.23;;
19891;SDS011;10108;50.142;8.724;2024-01-30T01:16:30;20.63;;;10.88;;
19891;SDS011;10108;50.142;8.724;2024-01-30T01:19:17;17.90;;;10.52;;
19891;SDS011;10108;50.142;8.724;2024-01-30T01:22:03;17.70;;;10.13;;
19891;SDS011;10108;50.142;8.724;2024-01-30T01:24:50;18.77;;;11.02;;
19891;SDS011;10108;50.142;8.724;2024-01-30T01:27:36;19.90;;;10.93;;
19891;SDS011;10108;50.142;8.724;2024-01-30T01:30:27;16.88;;;9.68;;
19891;SDS011;10108;50.142;8.724;2024-01-30T01:33:14;17.92;;;10.43;;
19891;SDS011;10108;50.142;8.724;2024-01-30T01:36:01;15.45;;;9.25;;
19891;SDS011;10108;50.142;8.724;2024-01-30T01:38:48;19.85;;;10.48;;
19891;SDS011;10108;50.142;8.724;2024-01-30T01:41:34;17.35;;;10.38;;
19891;SDS011;10108;50.142;8.724;2024-01-30T01:44:21;17.20;;;10.45;;
19891;SDS011;10108;50.142;8.724;2024-01-30T01:47:07;19.98;;;10.75;;
19891;SDS011;10108;50.142;8.724;2024-01-30T01:49:54;21.23;;;11.27;;
19891;SDS011;10108;50.142;8.724;2024-01-30T01:52:40;19.10;;;10.75;;
19891;SDS011;10108;50.142;8.724;2024-01-30T01:55:27;21.83;;;10.18;;
19891;SDS011;10108;50.142;8.724;2024-01-30T01:58:15;19.75;;;10.70;;
19891;SDS011;10108;50.142;8.724;2024-01-30T02:01:03;18.98;;;11.00;;
19891;SDS011;10108;50.142;8.724;2024-01-30T02:03:50;22.23;;;11.05;;
19891;SDS011;10108;50.142;8.724;2024-01-30T02:06:37;21.20;;;10.35;;
19891;SDS011;10108;50.142;8.724;2024-01-30T02:09:24;16.48;;;9.88;;
19891;SDS011;10108;50.142;8.724;2024-01-30T02:12:10;18.52;;;11.07;;
19891;SDS011;10108;50.142;8.724;2024-01-30T02:14:57;17.23;;;10.02;;
19891;SDS011;10108;50.142;8.724;2024-01-30T02:17:43;20.92;;;10.50;;
19891;SDS011;10108;50.142;8.724;2024-01-30T02:20:30;19.67;;;9.98;;
19891;SDS011;10108;50.142;8.724;2024-01-30T02:23:20;17.35;;;10.30;;
19891;SDS011;10108;50.142;8.724;2024-01-30T02:26:08;15.93;;;9.77;;
19891;SDS011;10108;50.142;8.724;2024-01-30T02:28:54;20.80;;;11.10;;
19891;SDS011;10108;50.142;8.724;2024-01-30T02:31:41;18.42;;;10.07;;
19891;SDS011;10108;50.142;8.724;2024-01-30T02:34:27;17.20;;;10.30;;
19891;SDS011;10108;50.142;8.724;2024-01-30T02:37:14;18.40;;;10.70;;
19891;SDS011;10108;50.142;8.724;2024-01-30T02:40:00;19.70;;;10.30;;
19891;SDS011;10108;50.142;8.724;2024-01-30T02:42:46;19.75;;;10.35;;
19891;SDS011;10108;50.142;8.724;2024-01-30T02:45:33;20.05;;;10.18;;
19891;SDS011;10108;50.142;8.724;2024-01-30T02:48:19;18.70;;;10.23;;
19891;SDS011;10108;50.142;8.724;2024-01-30T02:51:06;18.80;;;10.18;;
19891;SDS011;10108;50.142;8.724;2024-01-30T02:53:52;22.98;;;10.65;;
19891;SDS011;10108;50.142;8.724;2024-01-30T02:56:38;16.35;;;9.85;;
19891;SDS011;10108;50.142;8.724;2024-01-30T02:59:25;18.17;;;10.32;;
19891;SDS011;10108;50.142;8.724;2024-01-30T03:02:11;18.38;;;9.88;;
19891;SDS011;10108;50.142;8.724;2024-01-30T03:04:59;21.40;;;11.30;;
19891;SDS011;10108;50.142;8.724;2024-01-30T03:07:45;20.25;;;10.68;;
19891;SDS011;10108;50.142;8.724;2024-01-30T03:10:31;18.15;;;10.63;;
19891;SDS011;10108;50.142;8.724;2024-01-30T03:13:18;19.45;;;10.80;;
19891;SDS011;10108;50.142;8.724;2024-01-30T03:16:04;17.15;;;10.45;;
19891;SDS011;10108;50.142;8.724;2024-01-30T03:18:51;18.77;;;10.43;;
19891;SDS011;10108;50.142;8.724;2024-01-30T03:21:38;18.95;;;10.25;;
19891;SDS011;10108;50.142;8.724;2024-01-30T03:24:24;17.70;;;10.80;;
19891;SDS011;10108;50.142;8.724;2024-01-30T03:27:11;16.95;;;10.13;;
19891;SDS011;10108;50.142;8.724;2024-01-30T03:29:57;20.27;;;11.13;;
19891;SDS011;10108;50.142;8.724;2024-01-30T03:32:44;18.13;;;10.95;;
19891;SDS011;10108;50.142;8.724;2024-01-30T03:35:30;19.13;;;10.63;;
19891;SDS011;10108;50.142;8.724;2024-01-30T03:38:17;18.85;;;10.60;;
19891;SDS011;10108;50.142;8.724;2024-01-30T03:41:07;18.17;;;10.32;;
19891;SDS011;10108;50.142;8.724;2024-01-30T03:43:54;19.70;;;10.68;;
19891;SDS011;10108;50.142;8.724;2024-01-30T03:46:40;17.70;;;10.13;;
19891;SDS011;10108;50.142;8.724;2024-01-30T03:49:27;18.58;;;10.70;;
19891;SDS011;10108;50.142;8.724;2024-01-30T03:52:13;18.58;;;9.80;;
19891;SDS011;10108;50.142;8.724;2024-01-30T03:54:59;17.27;;;10.52;;
19891;SDS011;10108;50.142;8.724;2024-01-30T03:57:46;19.70;;;11.13;;
19891;SDS011;10108;50.142;8.724;2024-01-30T04:00:32;19.10;;;10.60;;
19891;SDS011;10108;50.142;8.724;2024-01-30T04:03:19;20.30;;;10.65;;
19891;SDS011;10108;50.142;8.724;2024-01-30T04:06:05;18.27;;;10.40;;
19891;SDS011;10108;50.142;8.724;2024-01-30T04:08:52;18.67;;;10.65;;
19891;SDS011;10108;50.142;8.724;2024-01-30T04:11:38;17.52;;;11.32;;
19891;SDS011;10108;50.142;8.724;2024-01-30T04:14:25;20.35;;;10.50;;
19891;SDS011;10108;50.142;8.724;2024-01-30T04:17:11;20.85;;;11.23;;
19891;SDS011;10108;50.142;8.724;2024-01-30T04:19:58;19.90;;;11.05;;
19891;SDS011;10108;50.142;8.724;2024-01-30T04:22:45;22.23;;;11.15;;
19891;SDS011;10108;50.142;8.724;2024-01-30T04:25:32;19.52;;;10.93;;
19891;SDS011;10108;50.142;8.724;2024-01-30T04:28:18;20.38;;;11.07;;
19891;SDS011;10108;50.142;8.724;2024-01-30T04:31:04;19.70;;;10.60;;
19891;SDS011;10108;50.142;8.724;2024-01-30T04:33:51;23.88;;;10.57;;
19891;SDS011;10108;50.142;8.724;2024-01-30T04:36:37;20.67;;;11.38;;
19891;SDS011;10108;50.142;8.724;2024-01-30T04:39:24;17.77;;;10.43;;
19891;SDS011;10108;50.142;8.724;2024-01-30T04:42:10;17.58;;;10.32;;
19891;SDS011;10108;50.142;8.724;2024-01-30T04:44:57;19.15;;;10.73;;
19891;SDS011;10108;50.142;8.724;2024-01-30T04:47:43;19.95;;;11.15;;
19891;SDS011;10108;50.142;8.724;2024-01-30T04:50:30;21.35;;;11.63;;
19891;SDS011;10108;50.142;8.724;2024-01-30T04:53:16;19.55;;;10.68;;
19891;SDS011;10108;50.142;8.724;2024-01-30T04:56:04;19.02;;;11.38;;
19891;SDS011;10108;50.142;8.724;2024-01-30T04:58:51;20.77;;;11.23;;
19891;SDS011;10108;50.142;8.724;2024-01-30T05:01:37;21.90;;;11.50;;
19891;SDS011;10108;50.142;8.724;2024-01-30T05:04:23;25.05;;;11.57;;
19891;SDS011;10108;50.142;8.724;2024-01-30T05:07:10;19.40;;;10.85;;
19891;SDS011;10108;50.142;8.724;2024-01-30T05:09:56;15.82;;;10.38;;
19891;SDS011;10108;50.142;8.724;2024-01-30T05:12:43;22.27;;;10.88;;
19891;SDS011;10108;50.142;8.724;2024-01-30T05:15:29;20.42;;;11.13;;
19891;SDS011;10108;50.142;8.724;2024-01-30T05:18:15;23.17;;;11.05;;
19891;SDS011;10108;50.142;8.724;2024-01-30T05:21:02;22.17;;;11.35;;
19891;SDS011;10108;50.142;8.724;2024-01-30T05:23:49;19.33;;;11.15;;
19891;SDS011;10108;50.142;8.724;2024-01-30T05:26:36;23.52;;;10.63;;
19891;SDS011;10108;50.142;8.724;2024-01-30T05:29:22;20.20;;;11.20;;
19891;SDS011;10108;50.142;8.724;2024-01-30T05:32:09;20.02;;;11.38;;
19891;SDS011;10108;50.142;8.724;2024-01-30T05:34:56;17.83;;;10.45;;
19891;SDS011;10108;50.142;8.724;2024-01-30T05:37:43;19.35;;;10.70;;
19891;SDS011;10108;50.142;8.724;2024-01-30T05:40:29;22.20;;;11.13;;
19891;SDS011;10108;50.142;8.724;2024-01-30T05:43:16;19.25;;;11.10;;
19891;SDS011;10108;50.142;8.724;2024-01-30T05:46:03;18.52;;;10.80;;
19891;SDS011;10108;50.142;8.724;2024-01-30T05:48:49;18.83;;;10.40;;
19891;SDS011;10108;50.142;8.724;2024-01-30T05:51:36;18.95;;;11.40;;
19891;SDS011;10108;50.142;8.724;2024-01-30T05:54:22;21.65;;;10.57;;
19891;SDS011;10108;50.142;8.724;2024-01-30T05:57:08;21.42;;;11.77;;
19891;SDS011;10108;50.142;8.724;2024-01-30T05:59:55;18.42;;;10.77;;
19891;SDS011;10108;50.142;8.724;2024-01-30T06:02:41;19.20;;;11.05;;
19891;SDS011;10108;50.142;8.724;2024-01-30T06:05:28;20.77;;;11.05;;
19891;SDS011;10108;50.142;8.724;2024-01-30T06:08:14;20.23;;;11.05;;
19891;SDS011;10108;50.142;8.724;2024-01-30T06:11:01;19.58;;;11.05;;
19891;SDS011;10108;50.142;8.724;2024-01-30T06:13:47;19.77;;;10.77;;
19891;SDS011;10108;50.142;8.724;2024-01-30T06:16:34;23.75;;;11.15;;
19891;SDS011;10108;50.142;8.724;2024-01-30T06:19:20;16.85;;;9.93;;
19891;SDS011;10108;50.142;8.724;2024-01-30T06:22:06;17.83;;;10.32;;
19891;SDS011;10108;50.142;8.724;2024-01-30T06:24:53;17.48;;;10.43;;
19891;SDS011;10108;50.142;8.724;2024-01-30T06:27:39;18.85;;;10.60;;
19891;SDS011;10108;50.142;8.724;2024-01-30T06:30:26;18.48;;;10.55;;
19891;SDS011;10108;50.142;8.724;2024-01-30T06:33:12;19.88;;;11.27;;
19891;SDS011;10108;50.142;8.724;2024-01-30T06:35:59;19.55;;;11.13;;
19891;SDS011;10108;50.142;8.724;2024-01-30T06:38:46;18.83;;;11.75;;
19891;SDS011;10108;50.142;8.724;2024-01-30T06:41:32;20.63;;;10.93;;
19891;SDS011;10108;50.142;8.724;2024-01-30T06:44:18;19.45;;;11.80;;
19891;SDS011;10108;50.142;8.724;2024-01-30T06:47:05;22.45;;;11.43;;
19891;SDS011;10108;50.142;8.724;2024-01-30T06:49:51;19.33;;;11.07;;
19891;SDS011;10108;50.142;8.724;2024-01-30T06:52:38;21.70;;;10.88;;
19891;SDS011;10108;50.142;8.724;2024-01-30T06:55:25;19.55;;;10.52;;
19891;SDS011;10108;50.142;8.724;2024-01-30T06:58:11;18.35;;;10.77;;
19891;SDS011;10108;50.142;8.724;2024-01-30T07:00:57;21.23;;;11.30;;
19891;SDS011;10108;50.142;8.724;2024-01-30T07:03:44;21.63;;;12.10;;
19891;SDS011;10108;50.142;8.724;2024-01-30T07:06:30;19.13;;;11.38;;
19891;SDS011;10108;50.142;8.724;2024-01-30T07:09:17;20.75;;;11.73;;
19891;SDS011;10108;50.142;8.724;2024-01-30T07:12:03;22.67;;;10.70;;
19891;SDS011;10108;50.142;8.724;2024-01-30T07:14:50;27.23;;;11.63;;
19891;SDS011;10108;50.142;8.724;2024-01-30T07:17:37;19.40;;;10.90;;
19891;SDS011;10108;50.142;8.724;2024-01-30T07:20:23;21.92;;;11.65;;
19891;SDS011;10108;50.142;8.724;2024-01-30T07:23:10;31.15;;;13.80;;
19891;SDS011;10108;50.142;8.724;2024-01-30T07:25:59;19.38;;;11.05;;
19891;SDS011;10108;50.142;8.724;2024-01-30T07:28:46;18.42;;;11.32;;
19891;SDS011;10108;50.142;8.724;2024-01-30T07:31:33;22.48;;;12.60;;
19891;SDS011;10108;50.142;8.724;2024-01-30T07:34:19;22.30;;;12.45;;
19891;SDS011;10108;50.142;8.724;2024-01-30T07:37:06;22.23;;;12.10;;
19891;SDS011;10108;50.142;8.724;2024-01-30T07:39:54;19.30;;;10.85;;
19891;SDS011;10108;50.142;8.724;2024-01-30T07:42:40;18.50;;;11.30;;
19891;SDS011;10108;50.142;8.724;2024-01-30T07:45:28;19.92;;;11.63;;
19891;SDS011;10108;50.142;8.724;2024-01-30T07:48:18;17.77;;;11.40;;
19891;SDS011;10108;50.142;8.724;2024-01-30T07:51:04;20.30;;;11.40;;
19891;SDS011;10108;50.142;8.724;2024-01-30T07:53:51;22.73;;;11.77;;
19891;SDS011;10108;50.142;8.724;2024-01-30T07:56:37;24.77;;;12.18;;
19891;SDS011;10108;50.142;8.724;2024-01-30T07:59:24;24.25;;;12.38;;
19891;SDS011;10108;50.142;8.724;2024-01-30T08:02:11;25.33;;;11.32;;
19891;SDS011;10108;50.142;8.724;2024-01-30T08:04:58;22.65;;;11.90;;
19891;SDS011;10108;50.142;8.724;2024-01-30T08:07:45;19.70;;;11.48;;
19891;SDS011;10108;50.142;8.724;2024-01-30T08:10:31;23.70;;;11.35;;
19891;SDS011;10108;50.142;8.724;2024-01-30T08:13:18;20.10;;;11.50;;
19891;SDS011;10108;50.142;8.724;2024-01-30T08:16:04;22.50;;;11.82;;
19891;SDS011;10108;50.142;8.724;2024-01-30T08:18:51;20.27;;;11.50;;
19891;SDS011;10108;50.142;8.724;2024-01-30T08:21:39;25.73;;;12.60;;
19891;SDS011;10108;50.142;8.724;2024-01-30T08:24:25;22.25;;;11.90;;
19891;SDS011;10108;50.142;8.724;2024-01-30T08:27:12;22.65;;;12.63;;
19891;SDS011;10108;50.142;8.724;2024-01-30T08:29:58;20.23;;;11.50;;
19891;SDS011;10108;50.142;8.724;2024-01-30T08:32:45;23.27;;;12.10;;
19891;SDS011;10108;50.142;8.724;2024-01-30T08:35:31;24.58;;;12.55;;
19891;SDS011;10108;50.142;8.724;2024-01-30T08:38:19;25.58;;;12.75;;
19891;SDS011;10108;50.142;8.724;2024-01-30T08:41:05;24.92;;;13.00;;
19891;SDS011;10108;50.142;8.724;2024-01-30T08:43:53;24.08;;;12.77;;
19891;SDS011;10108;50.142;8.724;2024-01-30T08:46:40;27.20;;;13.00;;
19891;SDS011;10108;50.142;8.724;2024-01-30T08:49:26;25.17;;;13.38;;
19891;SDS011;10108;50.142;8.724;2024-01-30T08:52:13;28.00;;;13.68;;
19891;SDS011;10108;50.142;8.724;2024-01-30T08:55:00;33.63;;;14.18;;
19891;SDS011;10108;50.142;8.724;2024-01-30T08:57:46;23.15;;;12.75;;
19891;SDS011;10108;50.142;8.724;2024-01-30T09:00:32;28.23;;;15.15;;
19891;SDS011;10108;50.142;8.724;2024-01-30T09:03:19;25.02;;;14.23;;
19891;SDS011;10108;50.142;8.724;2024-01-30T09:06:08;36.17;;;14.45;;
19891;SDS011;10108;50.142;8.724;2024-01-30T09:08:55;26.33;;;14.13;;
19891;SDS011;10108;50.142;8.724;2024-01-30T09:11:43;28.73;;;14.63;;
19891;SDS011;10108;50.142;8.724;2024-01-30T09:14:30;35.88;;;15.07;;
19891;SDS011;10108;50.142;8.724;2024-01-30T09:17:16;28.20;;;15.10;;
19891;SDS011;10108;50.142;8.724;2024-01-30T09:20:03;26.25;;;14.27;;
19891;SDS011;10108;50.142;8.724;2024-01-30T09:22:50;29.35;;;15.35;;
19891;SDS011;10108;50.142;8.724;2024-01-30T09:25:36;26.50;;;14.45;;
19891;SDS011;10108;50.142;8.724;2024-01-30T09:28:23;27.17;;;14.25;;
19891;SDS011;10108;50.142;8.724;2024-01-30T09:31:10;29.33;;;14.60;;
19891;SDS011;10108;50.142;8.724;2024-01-30T09:33:57;28.30;;;14.73;;
19891;SDS011;10108;50.142;8.724;2024-01-30T09:36:43;28.33;;;14.70;;
19891;SDS011;10108;50.142;8.724;2024-01-30T09:39:29;26.98;;;14.90;;
19891;SDS011;10108;50.142;8.724;2024-01-30T09:42:26;29.55;;;14.52;;
19891;SDS011;10108;50.142;8.724;2024-01-30T09:45:24;32.47;;;15.63;;
19891;SDS011;10108;50.142;8.724;2024-01-30T09:48:11;32.00;;;15.13;;
19891;SDS011;10108;50.142;8.724;2024-01-30T09:50:58;32.22;;;16.40;;
19891;SDS011;10108;50.142;8.724;2024-01-30T09:53:44;31.38;;;16.42;;
19891;SDS011;10108;50.142;8.724;2024-01-30T09:56:31;30.63;;;16.02;;
19891;SDS011;10108;50.142;8.724;2024-01-30T09:59:17;30.70;;;17.00;;
19891;SDS011;10108;50.142;8.724;2024-01-30T10:02:04;26.05;;;16.17;;
19891;SDS011;10108;50.142;8.724;2024-01-30T10:04:50;29.55;;;15.77;;
19891;SDS011;10108;50.142;8.724;2024-01-30T10:07:37;29.08;;;14.77;;
19891;SDS011;10108;50.142;8.724;2024-01-30T10:10:24;32.00;;;16.17;;
19891;SDS011;10108;50.142;8.724;2024-01-30T10:13:10;28.85;;;15.75;;
19891;SDS011;10108;50.142;8.724;2024-01-30T10:15:57;24.55;;;15.07;;
19891;SDS011;10108;50.142;8.724;2024-01-30T10:18:44;27.33;;;15.57;;
19891;SDS011;10108;50.142;8.724;2024-01-30T10:21:30;25.98;;;16.23;;
19891;SDS011;10108;50.142;8.724;2024-01-30T10:24:17;28.17;;;16.38;;
19891;SDS011;10108;50.142;8.724;2024-01-30T10:27:05;27.15;;;15.95;;
19891;SDS011;10108;50.142;8.724;2024-01-30T10:29:51;24.58;;;14.95;;
19891;SDS011;10108;50.142;8.724;2024-01-30T10:32:38;24.02;;;14.73;;
19891;SDS011;10108;50.142;8.724;2024-01-30T10:35:24;25.17;;;14.85;;
19891;SDS011;10108;50.142;8.724;2024-01-30T10:38:11;20.88;;;13.70;;
19891;SDS011;10108;50.142;8.724;2024-01-30T10:41:01;22.33;;;14.00;;
19891;SDS011;10108;50.142;8.724;2024-01-30T10:43:50;26.83;;;14.05;;
19891;SDS011;10108;50.142;8.724;2024-01-30T10:46:50;29.70;;;13.77;;
19891;SDS011;10108;50.142;8.724;2024-01-30T10:49:42;22.52;;;13.20;;
19891;SDS011;10108;50.142;8.724;2024-01-30T10:52:29;25.73;;;14.25;;
19891;SDS011;10108;50.142;8.724;2024-01-30T10:55:17;22.85;;;13.88;;
19891;SDS011;10108;50.142;8.724;2024-01-30T10:58:04;22.70;;;13.52;;
19891;SDS011;10108;50.142;8.724;2024-01-30T11:00:51;23.00;;;13.32;;
19891;SDS011;10108;50.142;8.724;2024-01-30T11:03:38;26.27;;;14.10;;
19891;SDS011;10108;50.142;8.724;2024-01-30T11:06:24;23.40;;;12.68;;
19891;SDS011;10108;50.142;8.724;2024-01-30T11:09:11;25.88;;;14.40;;
19891;SDS011;10108;50.142;8.724;2024-01-30T11:11:58;22.65;;;13.80;;
19891;SDS011;10108;50.142;8.724;2024-01-30T11:14:48;22.02;;;13.30;;
19891;SDS011;10108;50.142;8.724;2024-01-30T11:20:40;24.48;;;13.38;;
19891;SDS011;10108;50.142;8.724;2024-01-30T11:23:33;22.90;;;13.65;;
19891;SDS011;10108;50.142;8.724;2024-01-30T11:26:23;24.90;;;14.15;;
19891;SDS011;10108;50.142;8.724;2024-01-30T11:29:14;23.17;;;13.77;;
19891;SDS011;10108;50.142;8.724;2024-01-30T11:32:01;22.17;;;13.50;;
19891;SDS011;10108;50.142;8.724;2024-01-30T11:34:48;25.48;;;13.40;;
19891;SDS011;10108;50.142;8.724;2024-01-30T11:37:36;23.63;;;14.30;;
19891;SDS011;10108;50.142;8.724;2024-01-30T11:40:26;24.70;;;13.75;;
19891;SDS011;10108;50.142;8.724;2024-01-30T11:43:16;24.10;;;13.82;;
19891;SDS011;10108;50.142;8.724;2024-01-30T11:46:05;28.90;;;14.90;;
19891;SDS011;10108;50.142;8.724;2024-01-30T11:48:53;24.13;;;13.48;;
19891;SDS011;10108;50.142;8.724;2024-01-30T11:51:39;23.73;;;14.18;;
19891;SDS011;10108;50.142;8.724;2024-01-30T11:54:26;25.10;;;14.23;;
19891;SDS011;10108;50.142;8.724;2024-01-30T11:57:12;23.02;;;14.30;;
19891;SDS011;10108;50.142;8.724;2024-01-30T11:59:59;24.52;;;13.63;;
19891;SDS011;10108;50.142;8.724;2024-01-30T12:02:48;27.02;;;14.55;;
19891;SDS011;10108;50.142;8.724;2024-01-30T12:05:36;26.23;;;14.00;;
19891;SDS011;10108;50.142;8.724;2024-01-30T12:08:29;23.63;;;14.35;;
19891;SDS011;10108;50.142;8.724;2024-01-30T12:11:20;22.90;;;13.65;;
19891;SDS011;10108;50.142;8.724;2024-01-30T12:14:16;24.15;;;13.40;;
19891;SDS011;10108;50.142;8.724;2024-01-30T12:17:03;29.33;;;14.07;;
19891;SDS011;10108;50.142;8.724;2024-01-30T12:19:49;24.50;;;14.15;;
19891;SDS011;10108;50.142;8.724;2024-01-30T12:22:40;24.80;;;13.25;;
19891;SDS011;10108;50.142;8.724;2024-01-30T12:25:30;25.20;;;13.63;;
19891;SDS011;10108;50.142;8.724;2024-01-30T12:28:17;20.98;;;12.48;;
19891;SDS011;10108;50.142;8.724;2024-01-30T12:31:03;22.63;;;13.15;;
19891;SDS011;10108;50.142;8.724;2024-01-30T12:33:50;24.77;;;13.40;;
19891;SDS011;10108;50.142;8.724;2024-01-30T12:36:36;22.42;;;13.32;;
19891;SDS011;10108;50.142;8.724;2024-01-30T12:39:23;22.02;;;12.38;;
19891;SDS011;10108;50.142;8.724;2024-01-30T12:42:09;22.25;;;13.13;;
19891;SDS011;10108;50.142;8.724;2024-01-30T12:44:58;24.10;;;12.73;;
19891;SDS011;10108;50.142;8.724;2024-01-30T12:47:45;23.33;;;13.38;;
19891;SDS011;10108;50.142;8.724;2024-01-30T12:50:31;23.45;;;13.13;;
19891;SDS011;10108;50.142;8.724;2024-01-30T12:53:18;25.02;;;13.68;;
19891;SDS011;10108;50.142;8.724;2024-01-30T12:56:04;23.50;;;12.50;;
19891;SDS011;10108;50.142;8.724;2024-01-30T12:58:52;22.38;;;12.73;;
19891;SDS011;10108;50.142;8.724;2024-01-30T13:01:40;25.15;;;13.27;;
19891;SDS011;10108;50.142;8.724;2024-01-30T13:04:27;24.50;;;14.32;;
19891;SDS011;10108;50.142;8.724;2024-01-30T13:07:14;27.95;;;14.38;;
19891;SDS011;10108;50.142;8.724;2024-01-30T13:10:00;24.58;;;14.15;;
19891;SDS011;10108;50.142;8.724;2024-01-30T13:12:49;24.80;;;13.45;;
19891;SDS011;10108;50.142;8.724;2024-01-30T13:15:35;21.25;;;12.75;;
19891;SDS011;10108;50.142;8.724;2024-01-30T13:18:22;21.33;;;14.25;;
19891;SDS011;10108;50.142;8.724;2024-01-30T13:21:08;24.65;;;13.77;;
19891;SDS011;10108;50.142;8.724;2024-01-30T13:23:54;24.17;;;13.95;;
19891;SDS011;10108;50.142;8.724;2024-01-30T13:26:42;25.33;;;13.90;;
19891;SDS011;10108;50.142;8.724;2024-01-30T13:29:29;24.45;;;13.77;;
19891;SDS011;10108;50.142;8.724;2024-01-30T13:32:15;26.35;;;14.18;;
19891;SDS011;10108;50.142;8.724;2024-01-30T13:35:02;23.70;;;13.45;;
19891;SDS011;10108;50.142;8.724;2024-01-30T13:37:49;23.15;;;12.40;;
19891;SDS011;10108;50.142;8.724;2024-01-30T13:40:35;21.83;;;13.18;;
19891;SDS011;10108;50.142;8.724;2024-01-30T13:43:22;23.20;;;12.48;;
19891;SDS011;10108;50.142;8.724;2024-01-30T13:46:08;23.02;;;12.63;;
19891;SDS011;10108;50.142;8.724;2024-01-30T13:48:55;22.80;;;13.00;;
19891;SDS011;10108;50.142;8.724;2024-01-30T13:51:41;22.05;;;13.35;;
19891;SDS011;10108;50.142;8.724;2024-01-30T13:54:28;24.73;;;13.65;;
19891;SDS011;10108;50.142;8.724;2024-01-30T13:57:14;26.70;;;14.23;;
19891;SDS011;10108;50.142;8.724;2024-01-30T14:00:02;27.02;;;12.88;;
19891;SDS011;10108;50.142;8.724;2024-01-30T14:02:58;22.67;;;13.20;;
19891;SDS011;10108;50.142;8.724;2024-01-30T14:05:45;22.67;;;13.00;;
19891;SDS011;10108;50.142;8.724;2024-01-30T14:08:32;20.63;;;11.82;;
19891;SDS011;10108;50.142;8.724;2024-01-30T14:11:18;21.17;;;13.35;;
19891;SDS011;10108;50.142;8.724;2024-01-30T14:14:05;20.65;;;12.60;;
19891;SDS011;10108;50.142;8.724;2024-01-30T14:16:51;24.38;;;13.18;;
19891;SDS011;10108;50.142;8.724;2024-01-30T14:19:37;23.33;;;14.35;;
19891;SDS011;10108;50.142;8.724;2024-01-30T14:22:24;23.10;;;12.90;;
19891;SDS011;10108;50.142;8.724;2024-01-30T14:25:10;20.98;;;12.52;;
19891;SDS011;10108;50.142;8.724;2024-01-30T14:27:58;23.83;;;13.73;;
19891;SDS011;10108;50.142;8.724;2024-01-30T14:30:44;26.13;;;13.80;;
19891;SDS011;10108;50.142;8.724;2024-01-30T14:33:31;22.33;;;14.18;;
19891;SDS011;10108;50.142;8.724;2024-01-30T14:36:17;22.73;;;13.52;;
19891;SDS011;10108;50.142;8.724;2024-01-30T14:39:04;22.95;;;13.13;;
19891;SDS011;10108;50.142;8.724;2024-01-30T14:41:52;22.08;;;12.93;;
19891;SDS011;10108;50.142;8.724;2024-01-30T14:44:39;21.23;;;12.88;;
19891;SDS011;10108;50.142;8.724;2024-01-30T14:47:25;26.85;;;13.68;;
19891;SDS011;10108;50.142;8.724;2024-01-30T14:50:12;27.42;;;14.13;;
19891;SDS011;10108;50.142;8.724;2024-01-30T14:52:58;23.63;;;13.60;;
19891;SDS011;10108;50.142;8.724;2024-01-30T14:55:45;23.17;;;13.82;;
19891;SDS011;10108;50.142;8.724;2024-01-30T14:58:31;22.88;;;13.32;;
19891;SDS011;10108;50.142;8.724;2024-01-30T15:01:18;23.08;;;12.82;;
19891;SDS011;10108;50.142;8.724;2024-01-30T15:04:05;23.20;;;13.52;;
19891;SDS011;10108;50.142;8.724;2024-01-30T15:06:51;24.45;;;14.00;;
19891;SDS011;10108;50.142;8.724;2024-01-30T15:09:37;26.40;;;13.85;;
19891;SDS011;10108;50.142;8.724;2024-01-30T15:12:24;22.90;;;13.98;;
19891;SDS011;10108;50.142;8.724;2024-01-30T15:15:11;24.75;;;13.85;;
19891;SDS011;10108;50.142;8.724;2024-01-30T15:17:57;23.90;;;13.98;;
19891;SDS011;10108;50.142;8.724;2024-01-30T15:20:44;25.73;;;14.20;;
19891;SDS011;10108;50.142;8.724;2024-01-30T15:23:30;21.88;;;13.57;;
19891;SDS011;10108;50.142;8.724;2024-01-30T15:26:16;23.80;;;12.95;;
19891;SDS011;10108;50.142;8.724;2024-01-30T15:29:03;22.33;;;13.68;;
19891;SDS011;10108;50.142;8.724;2024-01-30T15:31:50;25.33;;;13.50;;
19891;SDS011;10108;50.142;8.724;2024-01-30T15:34:36;23.40;;;14.77;;
19891;SDS011;10108;50.142;8.724;2024-01-30T15:37:23;29.05;;;13.07;;
19891;SDS011;10108;50.142;8.724;2024-01-30T15:40:10;22.30;;;13.63;;
19891;SDS011;10108;50.142;8.724;2024-01-30T15:42:57;23.75;;;14.10;;
19891;SDS011;10108;50.142;8.724;2024-01-30T15:45:43;25.40;;;13.60;;
19891;SDS011;10108;50.142;8.724;2024-01-30T15:48:30;25.70;;;14.13;;
19891;SDS011;10108;50.142;8.724;2024-01-30T15:51:16;22.77;;;12.75;;
19891;SDS011;10108;50.142;8.724;2024-01-30T15:54:03;25.60;;;13.65;;
19891;SDS011;10108;50.142;8.724;2024-01-30T15:56:49;24.45;;;15.07;;
19891;SDS011;10108;50.142;8.724;2024-01-30T15:59:36;27.83;;;15.13;;
19891;SDS011;10108;50.142;8.724;2024-01-30T16:02:22;31.17;;;15.57;;
19891;SDS011;10108;50.142;8.724;2024-01-30T16:05:09;28.45;;;14.60;;
19891;SDS011;10108;50.142;8.724;2024-01-30T16:07:55;25.17;;;14.48;;
19891;SDS011;10108;50.142;8.724;2024-01-30T16:10:43;27.73;;;15.00;;
19891;SDS011;10108;50.142;8.724;2024-01-30T16:13:30;25.13;;;14.98;;
19891;SDS011;10108;50.142;8.724;2024-01-30T16:16:16;25.75;;;15.30;;
19891;SDS011;10108;50.142;8.724;2024-01-30T16:19:03;26.55;;;14.95;;